Time,TemperatureF,DewpointF,PressureIn,WindDirection,WindDirectionDegrees,WindSpeedMPH,WindSpeedGustMPH,Humidity,HourlyPrecipIn,Conditions,Clouds,dailyrainin,SolarRadiationWatts/m^2,SoftwareType,DateUTC
2013-04-21 00:00:00,32.0,24.0,30.39,WSW,254,4.0,-999.0,72,-99.99,,,-99.99,0.080000,,2013-04-21 04:00:00,
2013-04-21 00:53:00,32.0,24.0,30.39,WSW,254,4.0,-999.0,72,-99.99,,,-99.99,0.080000,,2013-04-21 04:53:00,
2013-04-21 04:00:00,29.0,22.0,30.46,WNW,302,3.0,-999.0,76,-99.99,,,-99.99,0.130000,,2013-04-21 08:00:00,
2013-04-21 04:52:00,29.0,22.0,30.46,WNW,302,3.0,-999.0,76,-99.99,,,-99.99,0.130000,,2013-04-21 08:52:00,
2013-04-21 05:00:00,29.0,22.0,30.48,WNW,284,4.0,-999.0,76,-99.99,,,-99.99,0.130000,,2013-04-21 09:00:00,
2013-04-21 05:53:00,29.0,22.0,30.48,WNW,284,4.0,-999.0,76,-99.99,,,-99.99,0.130000,,2013-04-21 09:53:00,
2013-04-21 06:00:00,28.0,22.0,30.52,WNW,289,4.0,-999.0,77,-99.99,,,-99.99,0.190000,,2013-04-21 10:00:00,
2013-04-21 06:52:00,28.0,22.0,30.52,WNW,289,4.0,-999.0,77,-99.99,,,-99.99,0.190000,,2013-04-21 10:52:00,
2013-04-21 07:00:00,29.0,22.0,30.56,WNW,282,3.0,-999.0,73,-99.99,,,-99.99,30.379999,,2013-04-21 11:00:00,
2013-04-21 07:52:00,29.0,22.0,30.56,WNW,282,3.0,-999.0,73,-99.99,,,-99.99,30.379999,,2013-04-21 11:52:00,
2013-04-21 08:00:00,32.0,21.0,30.58,WNW,300,3.0,-999.0,63,-99.99,,,-99.99,199.800003,,2013-04-21 12:00:00,
2013-04-21 08:52:00,32.0,21.0,30.58,WNW,300,3.0,-999.0,63,-99.99,,,-99.99,199.800003,,2013-04-21 12:52:00,
2013-04-21 09:00:00,34.0,22.0,30.61,NNW,342,4.0,-999.0,60,-99.99,,,-99.99,392.100006,,2013-04-21 13:00:00,
2013-04-21 09:52:00,34.0,22.0,30.61,NNW,342,4.0,-999.0,60,-99.99,,,-99.99,392.100006,,2013-04-21 13:52:00,
2013-04-21 10:00:00,34.0,19.0,30.64,North,5,5.0,-999.0,54,-99.99,,,-99.99,319.500000,,2013-04-21 14:00:00,
2013-04-21 10:52:00,34.0,19.0,30.64,North,5,5.0,-999.0,54,-99.99,,,-99.99,319.500000,,2013-04-21 14:52:00,
2013-04-21 11:00:00,35.0,21.0,30.66,NNW,329,5.0,-999.0,57,-99.99,,,-99.99,561.599976,,2013-04-21 15:00:00,
2013-04-21 11:53:00,35.0,21.0,30.66,NNW,329,5.0,-999.0,57,-99.99,,,-99.99,561.599976,,2013-04-21 15:53:00,
2013-04-21 12:00:00,39.0,21.0,30.67,NNE,17,6.0,-999.0,49,-99.99,,,-99.99,1004.000000,,2013-04-21 16:00:00,
2013-04-21 12:53:00,39.0,21.0,30.67,NNE,17,6.0,-999.0,49,-99.99,,,-99.99,1004.000000,,2013-04-21 16:53:00,
2013-04-21 13:00:00,41.0,20.0,30.67,NNW,343,5.0,-999.0,42,-99.99,,,-99.99,802.000000,,2013-04-21 17:00:00,
2013-04-21 13:52:00,41.0,20.0,30.67,NNW,343,5.0,-999.0,42,-99.99,,,-99.99,802.000000,,2013-04-21 17:52:00,
2013-04-21 14:00:00,42.0,19.0,30.65,North,359,5.0,-999.0,39,-99.99,,,-99.99,885.000000,,2013-04-21 18:00:00,
2013-04-21 14:52:00,42.0,19.0,30.65,North,359,5.0,-999.0,39,-99.99,,,-99.99,885.000000,,2013-04-21 18:52:00,
2013-04-21 15:00:00,43.0,19.0,30.64,North,359,4.0,-999.0,39,-99.99,,,-99.99,885.000000,,2013-04-21 19:00:00,
2013-04-21 15:52:00,43.0,19.0,30.64,North,359,4.0,-999.0,39,-99.99,,,-99.99,885.000000,,2013-04-21 19:52:00,
2013-04-21 16:00:00,43.0,21.0,30.62,NNE,25,5.0,-999.0,41,-99.99,,,-99.99,821.000000,,2013-04-21 20:00:00,
2013-04-21 16:52:00,43.0,21.0,30.62,NNE,25,5.0,-999.0,41,-99.99,,,-99.99,821.000000,,2013-04-21 20:52:00,
2013-04-21 17:00:00,42.0,20.0,30.61,NNE,26,6.0,-999.0,41,-99.99,,,-99.99,652.500000,,2013-04-21 21:00:00,
2013-04-21 17:53:00,42.0,20.0,30.61,NNE,26,6.0,-999.0,41,-99.99,,,-99.99,652.500000,,2013-04-21 21:53:00,
2013-04-21 18:00:00,43.0,21.0,30.61,North,7,6.0,-999.0,41,-99.99,,,-99.99,437.899994,,2013-04-21 22:00:00,
2013-04-21 18:53:00,43.0,21.0,30.61,North,7,6.0,-999.0,41,-99.99,,,-99.99,437.899994,,2013-04-21 22:53:00,
2013-04-21 19:00:00,41.0,20.0,30.61,NNE,16,6.0,-999.0,43,-99.99,,,-99.99,224.600006,,2013-04-21 23:00:00,
2013-04-21 19:52:00,41.0,20.0,30.61,NNE,16,6.0,-999.0,43,-99.99,,,-99.99,224.600006,,2013-04-21 23:52:00,
2013-04-21 20:00:00,37.0,19.0,30.62,NNE,20,5.0,-999.0,47,-99.99,,,-99.99,32.080002,,2013-04-22 00:00:00,
2013-04-21 20:52:00,37.0,19.0,30.62,NNE,20,5.0,-999.0,47,-99.99,,,-99.99,32.080002,,2013-04-22 00:52:00,
2013-04-21 21:00:00,35.0,17.0,30.62,North,352,3.0,-999.0,47,-99.99,,,-99.99,0.610000,,2013-04-22 01:00:00,
2013-04-21 21:52:00,35.0,17.0,30.62,North,352,3.0,-999.0,47,-99.99,,,-99.99,0.610000,,2013-04-22 01:52:00,
2013-04-21 22:00:00,33.0,17.0,30.62,NNW,347,3.0,-999.0,50,-99.99,,,-99.99,0.010000,,2013-04-22 02:00:00,
2013-04-21 22:52:00,33.0,17.0,30.62,NNW,347,3.0,-999.0,50,-99.99,,,-99.99,0.010000,,2013-04-22 02:52:00,
2013-04-21 23:00:00,32.0,18.0,30.62,NW,324,1.0,-999.0,56,-99.99,,,-99.99,0.050000,,2013-04-22 03:00:00,
2013-04-21 23:53:00,32.0,18.0,30.62,NW,324,1.0,-999.0,56,-99.99,,,-99.99,0.050000,,2013-04-22 03:53:00,